createdAt,value
2018-12-06T00:00:35.086Z,9.60
2018-12-06T00:03:05.804Z,9.47
2018-12-06T00:05:37.312Z,8.27
2018-12-06T00:08:18.836Z,8.43
2018-12-06T00:10:50.243Z,8.97
2018-12-06T00:13:20.236Z,7.20
2018-12-06T00:15:51.139Z,8.63
2018-12-06T00:18:21.219Z,7.20
2018-12-06T00:20:52.153Z,7.33
2018-12-06T00:23:29.360Z,7.57
2018-12-06T00:26:03.080Z,7.77
2018-12-06T00:28:37.757Z,7.90
2018-12-06T00:31:15.273Z,8.07
2018-12-06T00:33:47.104Z,6.43
2018-12-06T00:36:18.296Z,7.10
2018-12-06T00:38:49.581Z,7.90
2018-12-06T00:41:19.120Z,6.67
2018-12-06T00:43:53.060Z,7.57
2018-12-06T00:46:25.113Z,7.07
2018-12-06T00:48:57.955Z,7.10
2018-12-06T00:51:29.512Z,6.27
2018-12-06T00:53:59.452Z,7.10
2018-12-06T00:56:29.207Z,5.60
2018-12-06T00:58:59.403Z,5.80
2018-12-06T01:01:30.983Z,6.37
2018-12-06T01:04:03.878Z,5.17
2018-12-06T01:06:37.205Z,5.70
2018-12-06T01:09:07.999Z,5.90
2018-12-06T01:11:37.751Z,5.40
2018-12-06T01:14:11.733Z,6.53
2018-12-06T01:16:43.430Z,5.50
2018-12-06T01:19:14.863Z,5.00
2018-12-06T01:21:44.460Z,5.30
2018-12-06T01:24:15.572Z,5.90
2018-12-06T01:26:47.024Z,5.30
2018-12-06T01:29:19.312Z,6.50
2018-12-06T01:31:51.248Z,6.03
2018-12-06T01:34:21.589Z,6.17
2018-12-06T01:36:51.513Z,6.10
2018-12-06T01:39:22.359Z,9.13
2018-12-06T01:41:54.445Z,8.30
2018-12-06T01:44:24.578Z,8.80
2018-12-06T01:46:55.601Z,7.80
2018-12-06T01:49:25.538Z,6.77
2018-12-06T01:51:56.617Z,6.47
2018-12-06T01:54:27.508Z,6.43
2018-12-06T01:56:57.516Z,6.33
2018-12-06T01:59:29.444Z,6.10
2018-12-06T02:02:01.870Z,6.50
2018-12-06T02:04:34.364Z,6.07
2018-12-06T02:07:05.661Z,6.13
2018-12-06T02:09:38.437Z,6.03
2018-12-06T02:12:09.467Z,6.70
2018-12-06T02:14:40.718Z,6.50
2018-12-06T02:17:11.601Z,5.37
2018-12-06T02:19:42.137Z,6.73
2018-12-06T02:22:12.805Z,6.27
2018-12-06T02:24:42.636Z,5.37
2018-12-06T02:27:14.662Z,6.57
2018-12-06T02:29:50.182Z,5.93
2018-12-06T02:32:25.011Z,6.00
2018-12-06T02:35:01.188Z,5.97
2018-12-06T02:37:30.882Z,5.90
2018-12-06T02:40:02.848Z,5.37
2018-12-06T02:42:33.783Z,5.23
2018-12-06T02:45:06.429Z,5.97
2018-12-06T02:47:38.893Z,6.00
2018-12-06T02:50:11.919Z,5.07
2018-12-06T02:52:43.227Z,6.50
2018-12-06T02:55:14.078Z,4.83
2018-12-06T02:57:44.960Z,5.47
2018-12-06T03:00:14.812Z,6.30
2018-12-06T03:02:49.166Z,5.40
2018-12-06T03:05:18.989Z,6.57
2018-12-06T03:07:49.837Z,5.53
2018-12-06T03:10:22.350Z,5.20
2018-12-06T03:12:54.062Z,5.90
2018-12-06T03:15:25.508Z,5.90
2018-12-06T03:17:58.760Z,6.03
2018-12-06T03:20:29.142Z,6.40
2018-12-06T03:22:59.748Z,5.70
2018-12-06T03:25:30.156Z,6.17
2018-12-06T03:28:00.801Z,5.57
2018-12-06T03:30:30.622Z,5.30
2018-12-06T03:33:01.984Z,5.63
2018-12-06T03:35:32.787Z,6.40
2018-12-06T03:38:04.438Z,6.43
2018-12-06T03:40:34.460Z,6.53
2018-12-06T03:43:05.129Z,6.40
2018-12-06T03:45:35.854Z,6.00
2018-12-06T03:48:06.412Z,5.93
2018-12-06T03:50:37.138Z,5.77
2018-12-06T03:53:08.343Z,6.13
2018-12-06T03:55:39.040Z,7.00
2018-12-06T03:58:10.135Z,7.30
2018-12-06T04:00:40.659Z,6.57
2018-12-06T04:03:11.206Z,7.60
2018-12-06T04:05:41.873Z,8.00
2018-12-06T04:08:12.445Z,7.90
2018-12-06T04:10:42.993Z,7.03
2018-12-06T04:13:13.470Z,7.90
2018-12-06T04:15:43.189Z,7.20
2018-12-06T04:18:14.407Z,8.50
2018-12-06T04:20:45.543Z,7.07
2018-12-06T04:23:20.359Z,7.80
2018-12-06T04:25:52.998Z,7.30
2018-12-06T04:28:23.356Z,7.23
2018-12-06T04:30:54.408Z,8.30
2018-12-06T04:33:24.389Z,7.20
2018-12-06T04:35:55.092Z,7.20
2018-12-06T04:38:26.249Z,7.57
2018-12-06T04:40:59.002Z,8.13
2018-12-06T04:43:30.366Z,7.60
2018-12-06T04:46:01.245Z,6.43
2018-12-06T04:48:37.304Z,7.43
2018-12-06T04:51:08.845Z,7.03
2018-12-06T04:53:39.917Z,6.30
2018-12-06T04:56:10.303Z,7.10
2018-12-06T04:58:40.224Z,6.87
2018-12-06T05:01:11.559Z,7.20
2018-12-06T05:03:42.768Z,7.73
2018-12-06T05:06:13.271Z,7.23
2018-12-06T05:08:43.429Z,7.20
2018-12-06T05:11:15.258Z,7.87
2018-12-06T05:13:44.964Z,7.90
2018-12-06T05:16:15.538Z,6.70
2018-12-06T05:18:45.811Z,7.00
2018-12-06T05:21:17.981Z,7.30
2018-12-06T05:23:50.147Z,7.60
2018-12-06T05:26:20.612Z,7.07
2018-12-06T05:28:52.512Z,7.33
2018-12-06T05:31:22.679Z,6.87
2018-12-06T05:33:52.415Z,7.87
2018-12-06T05:36:24.291Z,6.90
2018-12-06T05:38:54.714Z,7.10
2018-12-06T05:41:24.867Z,7.17
2018-12-06T05:43:56.813Z,8.20
2018-12-06T05:46:27.565Z,7.40
2018-12-06T05:48:59.462Z,7.43
2018-12-06T05:51:30.323Z,6.50
2018-12-06T05:54:02.529Z,8.60
2018-12-06T05:56:35.568Z,7.80
2018-12-06T05:59:06.537Z,7.70
2018-12-06T06:01:38.138Z,7.23
2018-12-06T06:04:13.599Z,6.63
2018-12-06T06:06:43.580Z,7.67
2018-12-06T06:09:15.467Z,7.57
2018-12-06T06:11:46.338Z,6.77
2018-12-06T06:14:16.692Z,7.43
2018-12-06T06:16:47.154Z,5.63
2018-12-06T06:19:18.757Z,6.87
2018-12-06T06:21:48.422Z,6.87
2018-12-06T06:24:18.965Z,6.10
2018-12-06T06:26:53.909Z,5.77
2018-12-06T06:29:25.762Z,6.67
2018-12-06T06:32:01.113Z,6.10
2018-12-06T06:34:30.668Z,6.10
2018-12-06T06:37:01.000Z,5.50
2018-12-06T06:39:30.929Z,5.90
2018-12-06T06:42:02.909Z,5.83
2018-12-06T06:44:34.919Z,6.13
2018-12-06T06:47:06.951Z,6.30
2018-12-06T06:49:37.882Z,6.60
2018-12-06T06:52:08.943Z,6.40
2018-12-06T06:54:40.679Z,6.30
2018-12-06T06:57:12.253Z,7.23
2018-12-06T06:59:42.877Z,6.33
2018-12-06T07:02:18.047Z,7.27
2018-12-06T07:04:50.013Z,7.60
2018-12-06T07:07:21.556Z,7.30
2018-12-06T07:09:52.923Z,7.10
2018-12-06T07:12:28.971Z,8.13
2018-12-06T07:15:00.125Z,7.83
2018-12-06T07:17:30.363Z,7.20
2018-12-06T07:20:04.042Z,7.20
2018-12-06T07:22:34.769Z,8.50
2018-12-06T07:25:05.910Z,7.60
2018-12-06T07:27:36.417Z,8.20
2018-12-06T07:30:12.226Z,7.20
2018-12-06T07:32:42.182Z,8.10
2018-12-06T07:35:13.172Z,7.97
2018-12-06T07:37:44.153Z,7.40
2018-12-06T07:40:20.370Z,8.00
2018-12-06T07:42:51.649Z,8.73
2018-12-06T07:45:23.070Z,9.03
2018-12-06T07:48:02.069Z,9.00
2018-12-06T07:50:31.648Z,8.60
2018-12-06T07:53:03.299Z,7.07
2018-12-06T07:55:34.141Z,7.23
2018-12-06T07:58:04.121Z,8.20
2018-12-06T08:00:34.107Z,7.70
2018-12-06T08:03:06.138Z,8.37
2018-12-06T08:05:38.074Z,7.60
2018-12-06T08:08:10.401Z,6.97
2018-12-06T08:10:41.780Z,7.07
2018-12-06T08:13:12.795Z,7.43
2018-12-06T08:15:42.716Z,7.07
2018-12-06T08:18:13.387Z,7.13
2018-12-06T08:20:44.862Z,7.33
2018-12-06T08:23:15.417Z,7.77
2018-12-06T08:25:46.925Z,7.70
2018-12-06T08:28:18.624Z,7.77
2018-12-06T08:30:51.151Z,7.43
2018-12-06T08:33:23.593Z,8.20
2018-12-06T08:35:54.428Z,8.20
2018-12-06T08:38:24.458Z,6.67
2018-12-06T08:40:55.540Z,6.00
2018-12-06T08:43:26.391Z,7.60
2018-12-06T08:45:57.107Z,7.60
2018-12-06T08:48:28.127Z,7.90
2018-12-06T08:51:01.284Z,6.83
2018-12-06T08:53:31.128Z,6.77
2018-12-06T08:56:02.580Z,7.63
2018-12-06T08:58:41.403Z,7.17
2018-12-06T09:01:12.541Z,7.00
2018-12-06T09:03:44.448Z,7.17
2018-12-06T09:06:14.548Z,6.90
2018-12-06T09:08:44.476Z,6.60
2018-12-06T09:11:16.655Z,6.57
2018-12-06T09:13:46.620Z,6.93
2018-12-06T09:16:17.948Z,7.50
2018-12-06T09:18:48.470Z,6.63
2018-12-06T09:21:19.481Z,6.80
2018-12-06T09:23:51.190Z,6.33
2018-12-06T09:26:23.881Z,6.50
2018-12-06T09:28:55.041Z,6.20
2018-12-06T09:31:25.057Z,6.40
2018-12-06T09:34:08.753Z,6.10
2018-12-06T09:36:41.505Z,6.53
2018-12-06T09:39:11.910Z,5.97
2018-12-06T09:41:42.721Z,6.20
2018-12-06T09:44:13.347Z,7.47
2018-12-06T09:46:44.396Z,7.37
2018-12-06T09:49:15.913Z,7.57
2018-12-06T09:51:49.109Z,6.57
2018-12-06T09:54:21.887Z,7.17
2018-12-06T09:56:52.834Z,6.40
2018-12-06T09:59:22.877Z,6.83
2018-12-06T10:01:58.379Z,6.37
2018-12-06T10:04:31.251Z,6.93
2018-12-06T10:07:02.760Z,7.67
2018-12-06T10:09:35.066Z,7.53
2018-12-06T10:12:06.741Z,7.60
2018-12-06T10:14:37.316Z,7.60
2018-12-06T10:17:08.744Z,6.53
2018-12-06T10:19:39.319Z,7.03
2018-12-06T10:22:09.600Z,6.70
2018-12-06T10:24:40.468Z,6.43
2018-12-06T10:27:11.809Z,6.57
2018-12-06T10:29:41.734Z,6.30
2018-12-06T10:32:11.947Z,8.20
2018-12-06T10:34:43.104Z,7.00
2018-12-06T10:37:13.822Z,6.37
2018-12-06T10:39:44.389Z,7.47
2018-12-06T10:42:15.716Z,6.70
2018-12-06T10:44:45.455Z,7.00
2018-12-06T10:47:16.150Z,6.77
2018-12-06T10:49:47.219Z,6.30
2018-12-06T10:52:16.959Z,9.73
2018-12-06T10:54:52.529Z,10.90
2018-12-06T10:57:26.001Z,11.70
2018-12-06T10:59:58.100Z,9.57
2018-12-06T11:02:33.130Z,7.70
2018-12-06T11:05:03.011Z,7.37
2018-12-06T11:07:34.928Z,7.43
2018-12-06T11:10:08.227Z,8.23
2018-12-06T11:12:40.136Z,7.23
2018-12-06T11:15:12.460Z,7.33
2018-12-06T11:17:46.039Z,8.43
2018-12-06T11:20:16.596Z,14.33
2018-12-06T11:22:50.734Z,11.00
2018-12-06T11:25:22.087Z,7.90
2018-12-06T11:27:52.665Z,7.67
2018-12-06T11:30:23.944Z,6.83
2018-12-06T11:32:58.074Z,7.77
2018-12-06T11:35:30.262Z,8.30
2018-12-06T11:38:01.056Z,7.27
2018-12-06T11:40:31.399Z,6.90
2018-12-06T11:43:02.641Z,6.40
2018-12-06T11:45:32.740Z,6.07
2018-12-06T11:48:03.160Z,6.43
2018-12-06T11:50:34.250Z,7.03
2018-12-06T11:53:04.980Z,6.20
2018-12-06T11:55:35.688Z,6.53
2018-12-06T11:58:11.438Z,7.00
2018-12-06T12:00:40.367Z,6.33
2018-12-06T12:03:10.333Z,5.90
2018-12-06T12:05:41.280Z,7.03
2018-12-06T12:08:12.603Z,6.47
2018-12-06T12:10:43.010Z,6.67
2018-12-06T12:13:13.465Z,6.90
2018-12-06T12:15:44.379Z,6.40
2018-12-06T12:18:15.721Z,7.17
2018-12-06T12:20:46.533Z,6.20
2018-12-06T12:23:16.766Z,6.60
2018-12-06T12:25:51.804Z,6.77
2018-12-06T12:28:21.777Z,6.57
2018-12-06T12:30:53.288Z,6.67
2018-12-06T12:33:24.009Z,6.70
2018-12-06T12:35:56.808Z,6.03
2018-12-06T12:38:27.571Z,6.70
2018-12-06T12:40:57.540Z,7.57
2018-12-06T12:43:28.883Z,7.40
2018-12-06T12:46:01.583Z,7.73
2018-12-06T12:48:31.815Z,7.47
2018-12-06T12:51:05.329Z,7.57
2018-12-06T12:53:37.568Z,6.80
2018-12-06T12:56:07.663Z,6.97
2018-12-06T12:58:38.258Z,8.23
2018-12-06T13:01:09.409Z,7.50
2018-12-06T13:03:40.541Z,6.47
2018-12-06T13:06:14.877Z,7.17
2018-12-06T13:08:49.542Z,6.70
2018-12-06T13:11:21.571Z,6.50
2018-12-06T13:13:51.612Z,6.53
2018-12-06T13:16:23.101Z,8.83
2018-12-06T13:18:56.642Z,8.53
2018-12-06T13:21:26.546Z,7.20
2018-12-06T13:23:57.996Z,6.50
2018-12-06T13:26:27.535Z,6.90
2018-12-06T13:28:59.465Z,7.30
2018-12-06T13:31:30.420Z,7.40
2018-12-06T13:34:05.625Z,7.60
2018-12-06T13:36:38.781Z,8.47
2018-12-06T13:39:12.392Z,7.70
2018-12-06T13:41:50.642Z,8.80
2018-12-06T13:44:21.383Z,8.90
2018-12-06T13:46:51.691Z,8.17
2018-12-06T13:49:22.005Z,8.93
2018-12-06T13:51:52.802Z,7.90
2018-12-06T13:54:26.876Z,7.97
2018-12-06T13:56:57.588Z,8.27
2018-12-06T13:59:29.746Z,7.67
2018-12-06T14:02:01.652Z,7.70
2018-12-06T14:04:31.392Z,8.80
2018-12-06T14:07:01.895Z,9.13
2018-12-06T14:09:32.408Z,10.00
2018-12-06T14:12:04.553Z,8.53
2018-12-06T14:14:35.176Z,7.93
2018-12-06T14:17:04.805Z,8.43
2018-12-06T14:19:36.348Z,8.07
2018-12-06T14:22:05.958Z,8.87
2018-12-06T14:24:42.015Z,8.77
2018-12-06T14:27:12.942Z,8.47
2018-12-06T14:29:44.597Z,8.10
2018-12-06T14:32:16.223Z,8.47
2018-12-06T14:34:48.090Z,8.20
2018-12-06T14:37:19.142Z,8.00
2018-12-06T14:39:50.500Z,8.30
2018-12-06T14:42:20.923Z,9.33
2018-12-06T14:44:51.300Z,10.00
2018-12-06T14:47:22.844Z,9.20
2018-12-06T14:49:53.793Z,9.00
2018-12-06T14:52:28.964Z,9.27
2018-12-06T14:55:00.812Z,8.80
2018-12-06T14:57:31.487Z,8.30
2018-12-06T15:00:01.206Z,9.40
2018-12-06T15:02:31.723Z,9.40
2018-12-06T15:05:02.335Z,8.93
2018-12-06T15:07:31.955Z,10.00
2018-12-06T15:10:06.377Z,10.30
2018-12-06T15:12:43.547Z,10.33
2018-12-06T15:15:18.981Z,10.33
2018-12-06T15:17:51.121Z,11.20
2018-12-06T15:20:21.052Z,9.10
2018-12-06T15:22:53.455Z,8.97
2018-12-06T15:25:23.290Z,10.00
2018-12-06T15:27:56.314Z,10.17
2018-12-06T15:30:27.076Z,9.90
2018-12-06T15:32:58.500Z,10.20
2018-12-06T15:35:29.575Z,10.50
2018-12-06T15:38:00.600Z,10.00
2018-12-06T15:40:31.518Z,9.73
2018-12-06T15:43:01.340Z,10.50
2018-12-06T15:45:31.798Z,10.63
2018-12-06T15:48:03.903Z,11.57
2018-12-06T15:50:35.309Z,9.63
2018-12-06T15:53:06.348Z,10.50
2018-12-06T15:55:38.317Z,10.77
2018-12-06T15:58:08.920Z,10.90
2018-12-06T16:00:41.372Z,10.47
2018-12-06T16:03:12.716Z,11.10
2018-12-06T16:05:43.539Z,10.90
2018-12-06T16:08:15.081Z,10.97
2018-12-06T16:10:47.758Z,11.40
2018-12-06T16:13:53.266Z,11.13
2018-12-06T16:16:27.496Z,12.07
2018-12-06T16:18:58.331Z,11.63
2018-12-06T16:21:31.296Z,11.90
2018-12-06T16:24:04.223Z,12.57
2018-12-06T16:26:35.932Z,11.20
2018-12-06T16:29:07.634Z,11.73
2018-12-06T16:31:43.487Z,11.13
2018-12-06T16:34:13.631Z,12.17
2018-12-06T16:36:43.885Z,11.37
2018-12-06T16:39:14.751Z,11.83
2018-12-06T16:41:45.771Z,10.53
2018-12-06T16:44:16.551Z,11.50
2018-12-06T16:46:46.586Z,12.70
2018-12-06T16:49:17.557Z,11.80
2018-12-06T16:51:48.865Z,12.60
2018-12-06T16:54:20.531Z,13.47
2018-12-06T16:56:52.583Z,12.73
2018-12-06T16:59:23.896Z,12.83
2018-12-06T17:01:53.761Z,12.77
2018-12-06T17:04:24.060Z,13.40
2018-12-06T17:06:55.718Z,12.33
2018-12-06T17:09:32.443Z,12.37
2018-12-06T17:12:04.877Z,13.48
2018-12-06T17:14:36.108Z,14.17
2018-12-06T17:17:06.571Z,15.10
2018-12-06T17:19:36.460Z,13.40
2018-12-06T17:22:07.841Z,13.67
2018-12-06T17:24:38.030Z,14.20
2018-12-06T17:27:08.809Z,14.80
2018-12-06T17:29:40.132Z,14.53
2018-12-06T17:32:13.351Z,14.97
2018-12-06T17:34:43.350Z,13.40
2018-12-06T17:37:14.082Z,13.37
2018-12-06T17:39:45.166Z,13.77
2018-12-06T17:42:14.848Z,14.37
2018-12-06T17:44:45.910Z,15.77
2018-12-06T17:47:16.113Z,14.63
2018-12-06T17:49:47.106Z,14.43
2018-12-06T17:52:18.275Z,14.73
2018-12-06T17:54:48.198Z,15.40
2018-12-06T17:57:20.875Z,14.20
2018-12-06T17:59:51.815Z,18.60
2018-12-06T18:02:23.573Z,16.00
2018-12-06T18:04:54.823Z,17.23
2018-12-06T18:07:27.687Z,15.60
2018-12-06T18:09:59.175Z,15.03
2018-12-06T18:12:29.088Z,13.13
2018-12-06T18:15:01.149Z,14.77
2018-12-06T18:17:32.589Z,16.13
2018-12-06T18:20:05.452Z,15.60
2018-12-06T18:22:35.624Z,17.97
2018-12-06T18:25:08.334Z,17.33
2018-12-06T18:27:37.857Z,17.87
2018-12-06T18:30:12.990Z,14.90
2018-12-06T18:32:44.835Z,14.97
2018-12-06T18:35:21.926Z,14.00
2018-12-06T18:37:53.635Z,15.07
2018-12-06T18:40:25.594Z,14.87
2018-12-06T18:42:56.391Z,15.30
2018-12-06T18:45:26.966Z,15.80
2018-12-06T18:47:57.178Z,14.97
2018-12-06T18:50:28.325Z,14.70
2018-12-06T18:53:04.660Z,14.53
2018-12-06T18:55:35.895Z,15.27
2018-12-06T18:58:07.356Z,13.30
2018-12-06T19:00:38.721Z,12.90
2018-12-06T19:03:12.030Z,12.57
2018-12-06T19:05:44.806Z,13.87
2018-12-06T19:08:18.052Z,12.90
2018-12-06T19:10:48.507Z,13.83
2018-12-06T19:13:22.161Z,13.37
2018-12-06T19:15:55.404Z,14.33
2018-12-06T19:18:26.237Z,15.10
2018-12-06T19:20:57.427Z,16.00
2018-12-06T19:23:28.295Z,14.10
2018-12-06T19:25:59.178Z,14.43
2018-12-06T19:28:30.867Z,13.20
2018-12-06T19:31:11.765Z,14.30
2018-12-06T19:33:42.372Z,13.70
2018-12-06T19:36:12.386Z,14.50
2018-12-06T19:38:44.375Z,13.37
2018-12-06T19:41:14.308Z,14.43
2018-12-06T19:43:44.283Z,15.87
2018-12-06T19:46:15.704Z,15.57
2018-12-06T19:48:45.495Z,14.70
2018-12-06T19:51:21.388Z,15.73
2018-12-06T19:53:53.350Z,15.30
2018-12-06T19:56:23.805Z,15.57
2018-12-06T19:58:54.267Z,16.57
2018-12-06T20:01:24.604Z,14.90
2018-12-06T20:03:56.064Z,15.33
2018-12-06T20:06:31.270Z,14.50
2018-12-06T20:09:01.669Z,16.30
2018-12-06T20:11:32.995Z,15.80
2018-12-06T20:14:03.664Z,16.47
2018-12-06T20:16:34.819Z,15.80
2018-12-06T20:19:04.867Z,15.40
2018-12-06T20:21:36.285Z,15.00
2018-12-06T20:24:10.039Z,16.47
2018-12-06T20:26:40.881Z,16.73
2018-12-06T20:29:11.503Z,16.07
2018-12-06T20:31:42.273Z,16.33
2018-12-06T20:34:13.657Z,15.83
2018-12-06T20:36:43.674Z,16.10
2018-12-06T20:39:13.790Z,16.60
2018-12-06T20:41:47.454Z,15.80
2018-12-06T20:44:18.776Z,16.60
2018-12-06T20:46:49.401Z,16.53
2018-12-06T20:49:25.195Z,17.13
2018-12-06T20:51:56.252Z,15.00
2018-12-06T20:54:29.798Z,17.17
2018-12-06T20:57:01.261Z,16.70
2018-12-06T20:59:32.618Z,15.60
2018-12-06T21:02:05.217Z,16.43
2018-12-06T21:04:35.905Z,17.30
2018-12-06T21:07:06.483Z,16.30
2018-12-06T21:09:36.812Z,17.57
2018-12-06T21:12:09.654Z,16.60
2018-12-06T21:14:42.664Z,17.43
2018-12-06T21:17:17.670Z,16.70
2018-12-06T21:19:47.944Z,16.63
2018-12-06T21:22:19.614Z,16.90
2018-12-06T21:24:50.763Z,17.63
2018-12-06T21:27:23.757Z,15.93
2018-12-06T21:29:55.102Z,16.80
2018-12-06T21:32:24.646Z,18.00
2018-12-06T21:34:55.015Z,16.83
2018-12-06T21:37:25.916Z,18.30
2018-12-06T21:39:56.978Z,17.40
2018-12-06T21:42:27.966Z,16.17
2018-12-06T21:45:02.080Z,17.87
2018-12-06T21:47:32.861Z,17.13
2018-12-06T21:50:03.664Z,18.50
2018-12-06T21:52:36.793Z,17.70
2018-12-06T21:55:08.364Z,18.40
2018-12-06T21:57:40.419Z,21.40
2018-12-06T22:00:11.651Z,20.63
2018-12-06T22:02:42.851Z,21.07
2018-12-06T22:05:14.159Z,19.00
2018-12-06T22:07:46.761Z,19.10
2018-12-06T22:10:19.598Z,19.10
2018-12-06T22:12:50.989Z,20.40
2018-12-06T22:15:20.928Z,18.57
2018-12-06T22:17:51.448Z,19.87
2018-12-06T22:20:22.245Z,20.30
2018-12-06T22:22:52.702Z,18.63
2018-12-06T22:25:24.053Z,19.27
2018-12-06T22:27:55.118Z,18.03
2018-12-06T22:30:28.586Z,16.83
2018-12-06T22:32:58.409Z,16.77
2018-12-06T22:35:29.079Z,17.60
2018-12-06T22:38:01.172Z,19.20
2018-12-06T22:40:31.882Z,18.20
2018-12-06T22:43:04.186Z,18.80
2018-12-06T22:46:05.500Z,19.73
2018-12-06T22:48:35.560Z,19.27
2018-12-06T22:51:07.329Z,18.13
2018-12-06T22:53:39.606Z,18.90
2018-12-06T22:56:11.468Z,20.27
2018-12-06T22:58:42.691Z,20.17
2018-12-06T23:01:13.112Z,20.17
2018-12-06T23:03:44.148Z,21.30
2018-12-06T23:06:21.184Z,20.00
2018-12-06T23:08:53.264Z,19.63
2018-12-06T23:11:24.208Z,18.53
2018-12-06T23:13:54.892Z,20.67
2018-12-06T23:16:25.336Z,19.83
2018-12-06T23:18:56.161Z,20.93
2018-12-06T23:21:26.170Z,18.37
2018-12-06T23:23:58.992Z,18.47
2018-12-06T23:26:30.518Z,18.50
2018-12-06T23:29:02.002Z,17.40
2018-12-06T23:31:33.035Z,17.40
2018-12-06T23:34:06.299Z,16.10
2018-12-06T23:36:38.825Z,15.50
2018-12-06T23:39:11.570Z,15.37
2018-12-06T23:41:41.481Z,15.50
2018-12-06T23:44:11.354Z,17.13
2018-12-06T23:46:41.422Z,16.47
2018-12-06T23:49:13.556Z,16.80
2018-12-06T23:51:45.008Z,17.00
2018-12-06T23:54:16.800Z,17.27
2018-12-06T23:56:47.438Z,16.97
2018-12-06T23:59:19.734Z,17.37
